sensor_id;sensor_type;location;lat;lon;timestamp;P1;P2;P0
64138;PMS5003;50435;43.700;-79.318;2023-06-14T00:00:56;18;16;
64138;PMS5003;50435;43.700;-79.318;2023-06-14T00:03:23;14;12;
64138;PMS5003;50435;43.700;-79.318;2023-06-14T00:05:51;16;15;
64138;PMS5003;50435;43.700;-79.318;2023-06-14T00:08:18;18;16;
64138;PMS5003;50435;43.700;-79.318;2023-06-14T00:10:46;15;13;
64138;PMS5003;50435;43.700;-79.318;2023-06-14T00:13:14;18;14;
64138;PMS5003;50435;43.700;-79.318;2023-06-14T00:15:41;12;12;
64138;PMS5003;50435;43.700;-79.318;2023-06-14T00:18:09;16;14;
64138;PMS5003;50435;43.700;-79.318;2023-06-14T00:20:37;11;11;
64138;PMS5003;50435;43.700;-79.318;2023-06-14T00:23:04;15;12;
64138;PMS5003;50435;43.700;-79.318;2023-06-14T00:25:32;15;13;
64138;PMS5003;50435;43.700;-79.318;2023-06-14T00:28:00;15;13;
64138;PMS5003;50435;43.700;-79.318;2023-06-14T00:30:27;16;15;
64138;PMS5003;50435;43.700;-79.318;2023-06-14T00:32:55;16;13;
64138;PMS5003;50435;43.700;-79.318;2023-06-14T00:35:23;13;13;
64138;PMS5003;50435;43.700;-79.318;2023-06-14T00:37:51;17;15;
64138;PMS5003;50435;43.700;-79.318;2023-06-14T00:40:18;17;14;
64138;PMS5003;50435;43.700;-79.318;2023-06-14T00:42:46;13;13;
64138;PMS5003;50435;43.700;-79.318;2023-06-14T00:45:13;13;13;
64138;PMS5003;50435;43.700;-79.318;2023-06-14T00:47:41;13;13;
64138;PMS5003;50435;43.700;-79.318;2023-06-14T00:50:10;15;14;
64138;PMS5003;50435;43.700;-79.318;2023-06-14T00:52:38;12;12;
64138;PMS5003;50435;43.700;-79.318;2023-06-14T00:55:07;13;12;
64138;PMS5003;50435;43.700;-79.318;2023-06-14T00:57:36;17;11;
64138;PMS5003;50435;43.700;-79.318;2023-06-14T01:00:04;14;11;
64138;PMS5003;50435;43.700;-79.318;2023-06-14T01:02:33;17;15;
64138;PMS5003;50435;43.700;-79.318;2023-06-14T01:05:01;16;15;
64138;PMS5003;50435;43.700;-79.318;2023-06-14T01:07:30;19;16;
64138;PMS5003;50435;43.700;-79.318;2023-06-14T01:10:12;17;17;
64138;PMS5003;50435;43.700;-79.318;2023-06-14T01:12:52;18;17;
64138;PMS5003;50435;43.700;-79.318;2023-06-14T01:15:25;11;11;
64138;PMS5003;50435;43.700;-79.318;2023-06-14T01:17:54;14;12;
64138;PMS5003;50435;43.700;-79.318;2023-06-14T01:20:21;14;14;
64138;PMS5003;50435;43.700;-79.318;2023-06-14T01:22:54;9;9;
64138;PMS5003;50435;43.700;-79.318;2023-06-14T01:25:22;15;14;
64138;PMS5003;50435;43.700;-79.318;2023-06-14T01:27:50;17;12;
64138;PMS5003;50435;43.700;-79.318;2023-06-14T01:30:19;8;8;
64138;PMS5003;50435;43.700;-79.318;2023-06-14T01:32:48;11;11;
64138;PMS5003;50435;43.700;-79.318;2023-06-14T01:35:17;14;12;
64138;PMS5003;50435;43.700;-79.318;2023-06-14T01:37:45;11;11;
64138;PMS5003;50435;43.700;-79.318;2023-06-14T01:40:15;11;10;
64138;PMS5003;50435;43.700;-79.318;2023-06-14T01:42:43;14;13;
64138;PMS5003;50435;43.700;-79.318;2023-06-14T01:45:14;12;11;
64138;PMS5003;50435;43.700;-79.318;2023-06-14T01:47:44;13;11;
64138;PMS5003;50435;43.700;-79.318;2023-06-14T01:50:12;13;11;
64138;PMS5003;50435;43.700;-79.318;2023-06-14T01:52:40;12;11;
64138;PMS5003;50435;43.700;-79.318;2023-06-14T01:55:08;12;12;
64138;PMS5003;50435;43.700;-79.318;2023-06-14T01:57:35;15;14;
64138;PMS5003;50435;43.700;-79.318;2023-06-14T02:00:03;13;11;
64138;PMS5003;50435;43.700;-79.318;2023-06-14T02:02:31;13;12;
64138;PMS5003;50435;43.700;-79.318;2023-06-14T02:05:00;16;13;
64138;PMS5003;50435;43.700;-79.318;2023-06-14T02:07:28;13;10;
64138;PMS5003;50435;43.700;-79.318;2023-06-14T02:09:55;9;8;
64138;PMS5003;50435;43.700;-79.318;2023-06-14T02:12:23;13;12;
64138;PMS5003;50435;43.700;-79.318;2023-06-14T02:14:51;9;9;
64138;PMS5003;50435;43.700;-79.318;2023-06-14T02:17:18;8;8;
64138;PMS5003;50435;43.700;-79.318;2023-06-14T02:19:46;9;9;
64138;PMS5003;50435;43.700;-79.318;2023-06-14T02:22:13;13;11;
64138;PMS5003;50435;43.700;-79.318;2023-06-14T02:24:40;11;8;
64138;PMS5003;50435;43.700;-79.318;2023-06-14T02:27:08;14;11;
64138;PMS5003;50435;43.700;-79.318;2023-06-14T02:29:36;10;9;
64138;PMS5003;50435;43.700;-79.318;2023-06-14T02:32:04;8;8;
64138;PMS5003;50435;43.700;-79.318;2023-06-14T02:34:32;15;12;
64138;PMS5003;50435;43.700;-79.318;2023-06-14T02:37:00;10;10;
64138;PMS5003;50435;43.700;-79.318;2023-06-14T02:39:27;12;10;
64138;PMS5003;50435;43.700;-79.318;2023-06-14T02:41:55;11;8;
64138;PMS5003;50435;43.700;-79.318;2023-06-14T02:44:24;6;6;
64138;PMS5003;50435;43.700;-79.318;2023-06-14T02:46:52;8;7;
64138;PMS5003;50435;43.700;-79.318;2023-06-14T02:49:19;10;9;
64138;PMS5003;50435;43.700;-79.318;2023-06-14T02:51:47;14;9;
64138;PMS5003;50435;43.700;-79.318;2023-06-14T02:54:15;10;8;
64138;PMS5003;50435;43.700;-79.318;2023-06-14T02:56:43;10;8;
64138;PMS5003;50435;43.700;-79.318;2023-06-14T02:59:11;6;6;
64138;PMS5003;50435;43.700;-79.318;2023-06-14T03:01:38;10;9;
64138;PMS5003;50435;43.700;-79.318;2023-06-14T03:04:06;8;8;
64138;PMS5003;50435;43.700;-79.318;2023-06-14T03:06:35;9;7;
64138;PMS5003;50435;43.700;-79.318;2023-06-14T03:09:03;7;7;
64138;PMS5003;50435;43.700;-79.318;2023-06-14T03:11:31;11;7;
64138;PMS5003;50435;43.700;-79.318;2023-06-14T03:13:59;7;6;
64138;PMS5003;50435;43.700;-79.318;2023-06-14T03:16:27;12;12;
64138;PMS5003;50435;43.700;-79.318;2023-06-14T03:18:55;10;10;
64138;PMS5003;50435;43.700;-79.318;2023-06-14T03:21:23;8;8;
64138;PMS5003;50435;43.700;-79.318;2023-06-14T03:23:50;8;7;
64138;PMS5003;50435;43.700;-79.318;2023-06-14T03:26:18;8;8;
64138;PMS5003;50435;43.700;-79.318;2023-06-14T03:28:46;9;7;
64138;PMS5003;50435;43.700;-79.318;2023-06-14T03:31:13;11;9;
64138;PMS5003;50435;43.700;-79.318;2023-06-14T03:33:41;8;8;
64138;PMS5003;50435;43.700;-79.318;2023-06-14T03:36:08;9;9;
64138;PMS5003;50435;43.700;-79.318;2023-06-14T03:38:36;11;8;
64138;PMS5003;50435;43.700;-79.318;2023-06-14T03:41:04;8;8;
64138;PMS5003;50435;43.700;-79.318;2023-06-14T03:43:32;10;8;
64138;PMS5003;50435;43.700;-79.318;2023-06-14T03:45:59;16;10;
64138;PMS5003;50435;43.700;-79.318;2023-06-14T03:48:27;12;10;
64138;PMS5003;50435;43.700;-79.318;2023-06-14T03:50:55;10;7;
64138;PMS5003;50435;43.700;-79.318;2023-06-14T03:53:22;9;9;
64138;PMS5003;50435;43.700;-79.318;2023-06-14T03:55:49;9;8;
64138;PMS5003;50435;43.700;-79.318;2023-06-14T03:58:17;9;9;
64138;PMS5003;50435;43.700;-79.318;2023-06-14T04:00:45;10;9;
64138;PMS5003;50435;43.700;-79.318;2023-06-14T04:03:13;9;9;
64138;PMS5003;50435;43.700;-79.318;2023-06-14T04:05:41;10;10;
64138;PMS5003;50435;43.700;-79.318;2023-06-14T04:08:10;8;6;
64138;PMS5003;50435;43.700;-79.318;2023-06-14T04:10:37;11;11;
64138;PMS5003;50435;43.700;-79.318;2023-06-14T04:13:05;7;7;
64138;PMS5003;50435;43.700;-79.318;2023-06-14T04:15:33;10;10;
64138;PMS5003;50435;43.700;-79.318;2023-06-14T04:18:00;10;9;
64138;PMS5003;50435;43.700;-79.318;2023-06-14T04:20:28;10;10;
64138;PMS5003;50435;43.700;-79.318;2023-06-14T04:22:56;9;9;
64138;PMS5003;50435;43.700;-79.318;2023-06-14T04:25:24;7;5;
64138;PMS5003;50435;43.700;-79.318;2023-06-14T04:27:51;11;10;
64138;PMS5003;50435;43.700;-79.318;2023-06-14T04:30:19;7;6;
64138;PMS5003;50435;43.700;-79.318;2023-06-14T04:32:47;6;6;
64138;PMS5003;50435;43.700;-79.318;2023-06-14T04:35:14;8;5;
64138;PMS5003;50435;43.700;-79.318;2023-06-14T04:37:42;8;8;
64138;PMS5003;50435;43.700;-79.318;2023-06-14T04:40:10;9;7;
64138;PMS5003;50435;43.700;-79.318;2023-06-14T04:42:38;9;8;
64138;PMS5003;50435;43.700;-79.318;2023-06-14T04:45:06;8;7;
64138;PMS5003;50435;43.700;-79.318;2023-06-14T04:47:34;9;7;
64138;PMS5003;50435;43.700;-79.318;2023-06-14T04:50:02;10;8;
64138;PMS5003;50435;43.700;-79.318;2023-06-14T04:52:29;10;10;
64138;PMS5003;50435;43.700;-79.318;2023-06-14T04:54:57;13;12;
64138;PMS5003;50435;43.700;-79.318;2023-06-14T04:57:25;8;8;
64138;PMS5003;50435;43.700;-79.318;2023-06-14T04:59:53;7;7;
64138;PMS5003;50435;43.700;-79.318;2023-06-14T05:02:21;11;8;
64138;PMS5003;50435;43.700;-79.318;2023-06-14T05:04:48;8;8;
64138;PMS5003;50435;43.700;-79.318;2023-06-14T05:07:16;9;9;
64138;PMS5003;50435;43.700;-79.318;2023-06-14T05:09:44;9;7;
64138;PMS5003;50435;43.700;-79.318;2023-06-14T05:12:12;9;8;
64138;PMS5003;50435;43.700;-79.318;2023-06-14T05:14:40;7;7;
64138;PMS5003;50435;43.700;-79.318;2023-06-14T05:17:07;9;9;
64138;PMS5003;50435;43.700;-79.318;2023-06-14T05:19:35;9;8;
64138;PMS5003;50435;43.700;-79.318;2023-06-14T05:22:03;10;9;
64138;PMS5003;50435;43.700;-79.318;2023-06-14T05:24:31;8;8;
64138;PMS5003;50435;43.700;-79.318;2023-06-14T05:26:59;8;6;
64138;PMS5003;50435;43.700;-79.318;2023-06-14T05:29:26;12;9;
64138;PMS5003;50435;43.700;-79.318;2023-06-14T05:31:54;8;7;
64138;PMS5003;50435;43.700;-79.318;2023-06-14T05:34:22;9;8;
64138;PMS5003;50435;43.700;-79.318;2023-06-14T05:36:50;6;6;
64138;PMS5003;50435;43.700;-79.318;2023-06-14T05:39:17;12;10;
64138;PMS5003;50435;43.700;-79.318;2023-06-14T05:41:45;10;9;
64138;PMS5003;50435;43.700;-79.318;2023-06-14T05:44:13;12;8;
64138;PMS5003;50435;43.700;-79.318;2023-06-14T05:46:40;8;8;
64138;PMS5003;50435;43.700;-79.318;2023-06-14T05:49:08;10;10;
64138;PMS5003;50435;43.700;-79.318;2023-06-14T05:51:36;11;10;
64138;PMS5003;50435;43.700;-79.318;2023-06-14T05:54:03;7;7;
64138;PMS5003;50435;43.700;-79.318;2023-06-14T05:56:31;8;8;
64138;PMS5003;50435;43.700;-79.318;2023-06-14T05:58:59;13;10;
64138;PMS5003;50435;43.700;-79.318;2023-06-14T06:01:26;13;12;
64138;PMS5003;50435;43.700;-79.318;2023-06-14T06:03:54;11;11;
64138;PMS5003;50435;43.700;-79.318;2023-06-14T06:06:22;11;10;
64138;PMS5003;50435;43.700;-79.318;2023-06-14T06:08:49;9;9;
64138;PMS5003;50435;43.700;-79.318;2023-06-14T06:11:17;12;9;
64138;PMS5003;50435;43.700;-79.318;2023-06-14T06:13:44;12;7;
64138;PMS5003;50435;43.700;-79.318;2023-06-14T06:16:12;8;7;
64138;PMS5003;50435;43.700;-79.318;2023-06-14T06:18:41;10;9;
64138;PMS5003;50435;43.700;-79.318;2023-06-14T06:21:08;10;7;
64138;PMS5003;50435;43.700;-79.318;2023-06-14T06:23:36;10;10;
64138;PMS5003;50435;43.700;-79.318;2023-06-14T06:26:04;8;7;
64138;PMS5003;50435;43.700;-79.318;2023-06-14T06:28:32;6;6;
64138;PMS5003;50435;43.700;-79.318;2023-06-14T06:30:59;9;9;
64138;PMS5003;50435;43.700;-79.318;2023-06-14T06:33:27;9;8;
64138;PMS5003;50435;43.700;-79.318;2023-06-14T06:35:55;5;5;
64138;PMS5003;50435;43.700;-79.318;2023-06-14T06:38:23;7;7;
64138;PMS5003;50435;43.700;-79.318;2023-06-14T06:40:51;6;5;
64138;PMS5003;50435;43.700;-79.318;2023-06-14T06:43:18;10;9;
64138;PMS5003;50435;43.700;-79.318;2023-06-14T06:45:46;6;5;
64138;PMS5003;50435;43.700;-79.318;2023-06-14T06:48:14;6;6;
64138;PMS5003;50435;43.700;-79.318;2023-06-14T06:50:42;9;8;
64138;PMS5003;50435;43.700;-79.318;2023-06-14T06:53:10;14;10;
64138;PMS5003;50435;43.700;-79.318;2023-06-14T06:55:37;10;10;
64138;PMS5003;50435;43.700;-79.318;2023-06-14T06:58:05;9;8;
64138;PMS5003;50435;43.700;-79.318;2023-06-14T07:00:33;12;7;
64138;PMS5003;50435;43.700;-79.318;2023-06-14T07:03:00;10;7;
64138;PMS5003;50435;43.700;-79.318;2023-06-14T07:05:28;12;10;
64138;PMS5003;50435;43.700;-79.318;2023-06-14T07:07:55;9;9;
64138;PMS5003;50435;43.700;-79.318;2023-06-14T07:10:23;15;12;
64138;PMS5003;50435;43.700;-79.318;2023-06-14T07:12:51;8;8;
64138;PMS5003;50435;43.700;-79.318;2023-06-14T07:15:18;11;8;
64138;PMS5003;50435;43.700;-79.318;2023-06-14T07:17:46;12;8;
64138;PMS5003;50435;43.700;-79.318;2023-06-14T07:20:13;9;9;
64138;PMS5003;50435;43.700;-79.318;2023-06-14T07:22:41;14;11;
64138;PMS5003;50435;43.700;-79.318;2023-06-14T07:25:10;10;9;
64138;PMS5003;50435;43.700;-79.318;2023-06-14T07:27:38;11;9;
64138;PMS5003;50435;43.700;-79.318;2023-06-14T07:30:06;14;14;
64138;PMS5003;50435;43.700;-79.318;2023-06-14T07:32:34;11;10;
64138;PMS5003;50435;43.700;-79.318;2023-06-14T07:35:02;8;7;
64138;PMS5003;50435;43.700;-79.318;2023-06-14T07:37:30;12;10;
64138;PMS5003;50435;43.700;-79.318;2023-06-14T07:39:57;13;10;
64138;PMS5003;50435;43.700;-79.318;2023-06-14T07:42:25;11;10;
64138;PMS5003;50435;43.700;-79.318;2023-06-14T07:44:52;13;13;
64138;PMS5003;50435;43.700;-79.318;2023-06-14T07:47:19;13;12;
64138;PMS5003;50435;43.700;-79.318;2023-06-14T07:49:47;14;10;
64138;PMS5003;50435;43.700;-79.318;2023-06-14T07:52:15;15;15;
64138;PMS5003;50435;43.700;-79.318;2023-06-14T07:54:43;19;14;
64138;PMS5003;50435;43.700;-79.318;2023-06-14T07:57:10;15;13;
64138;PMS5003;50435;43.700;-79.318;2023-06-14T07:59:37;16;15;
64138;PMS5003;50435;43.700;-79.318;2023-06-14T08:02:04;12;11;
64138;PMS5003;50435;43.700;-79.318;2023-06-14T08:04:32;17;16;
64138;PMS5003;50435;43.700;-79.318;2023-06-14T08:06:59;21;15;
64138;PMS5003;50435;43.700;-79.318;2023-06-14T08:09:27;21;17;
64138;PMS5003;50435;43.700;-79.318;2023-06-14T08:11:55;16;16;
64138;PMS5003;50435;43.700;-79.318;2023-06-14T08:14:23;18;18;
64138;PMS5003;50435;43.700;-79.318;2023-06-14T08:16:50;18;16;
64138;PMS5003;50435;43.700;-79.318;2023-06-14T08:19:18;18;17;
64138;PMS5003;50435;43.700;-79.318;2023-06-14T08:21:45;24;19;
64138;PMS5003;50435;43.700;-79.318;2023-06-14T08:24:13;17;16;
64138;PMS5003;50435;43.700;-79.318;2023-06-14T08:26:40;28;25;
64138;PMS5003;50435;43.700;-79.318;2023-06-14T08:29:08;25;19;
64138;PMS5003;50435;43.700;-79.318;2023-06-14T08:31:35;21;17;
64138;PMS5003;50435;43.700;-79.318;2023-06-14T08:34:03;18;14;
64138;PMS5003;50435;43.700;-79.318;2023-06-14T08:36:30;20;15;
64138;PMS5003;50435;43.700;-79.318;2023-06-14T08:38:58;17;15;
64138;PMS5003;50435;43.700;-79.318;2023-06-14T08:41:25;23;21;
64138;PMS5003;50435;43.700;-79.318;2023-06-14T08:43:54;23;19;
64138;PMS5003;50435;43.700;-79.318;2023-06-14T08:46:22;19;16;
64138;PMS5003;50435;43.700;-79.318;2023-06-14T08:48:52;15;15;
64138;PMS5003;50435;43.700;-79.318;2023-06-14T08:51:22;22;19;
64138;PMS5003;50435;43.700;-79.318;2023-06-14T08:53:53;21;17;
64138;PMS5003;50435;43.700;-79.318;2023-06-14T08:56:21;20;18;
64138;PMS5003;50435;43.700;-79.318;2023-06-14T08:58:51;19;15;
64138;PMS5003;50435;43.700;-79.318;2023-06-14T09:01:19;19;18;
64138;PMS5003;50435;43.700;-79.318;2023-06-14T09:03:47;20;17;
64138;PMS5003;50435;43.700;-79.318;2023-06-14T09:06:15;28;20;
64138;PMS5003;50435;43.700;-79.318;2023-06-14T09:08:43;20;17;
64138;PMS5003;50435;43.700;-79.318;2023-06-14T09:11:12;20;16;
64138;PMS5003;50435;43.700;-79.318;2023-06-14T09:13:41;20;18;
64138;PMS5003;50435;43.700;-79.318;2023-06-14T09:16:09;17;16;
64138;PMS5003;50435;43.700;-79.318;2023-06-14T09:18:37;21;17;
64138;PMS5003;50435;43.700;-79.318;2023-06-14T09:21:05;16;16;
64138;PMS5003;50435;43.700;-79.318;2023-06-14T09:23:34;20;18;
64138;PMS5003;50435;43.700;-79.318;2023-06-14T09:26:07;12;12;
64138;PMS5003;50435;43.700;-79.318;2023-06-14T09:28:35;15;13;
64138;PMS5003;50435;43.700;-79.318;2023-06-14T09:31:03;18;14;
64138;PMS5003;50435;43.700;-79.318;2023-06-14T09:33:30;16;16;
64138;PMS5003;50435;43.700;-79.318;2023-06-14T09:35:57;13;12;
64138;PMS5003;50435;43.700;-79.318;2023-06-14T09:38:25;18;18;
64138;PMS5003;50435;43.700;-79.318;2023-06-14T09:40:54;16;16;
64138;PMS5003;50435;43.700;-79.318;2023-06-14T09:43:24;19;15;
64138;PMS5003;50435;43.700;-79.318;2023-06-14T09:45:52;14;14;
64138;PMS5003;50435;43.700;-79.318;2023-06-14T09:48:21;17;13;
64138;PMS5003;50435;43.700;-79.318;2023-06-14T09:50:49;15;15;
64138;PMS5003;50435;43.700;-79.318;2023-06-14T09:53:20;17;17;
64138;PMS5003;50435;43.700;-79.318;2023-06-14T09:55:49;14;14;
64138;PMS5003;50435;43.700;-79.318;2023-06-14T09:58:19;17;15;
64138;PMS5003;50435;43.700;-79.318;2023-06-14T10:00:49;17;14;
64138;PMS5003;50435;43.700;-79.318;2023-06-14T10:03:19;17;15;
64138;PMS5003;50435;43.700;-79.318;2023-06-14T10:05:50;16;16;
64138;PMS5003;50435;43.700;-79.318;2023-06-14T10:08:19;16;16;
64138;PMS5003;50435;43.700;-79.318;2023-06-14T10:10:50;17;16;
64138;PMS5003;50435;43.700;-79.318;2023-06-14T10:13:17;14;13;
64138;PMS5003;50435;43.700;-79.318;2023-06-14T10:15:54;18;18;
64138;PMS5003;50435;43.700;-79.318;2023-06-14T10:18:33;17;15;
64138;PMS5003;50435;43.700;-79.318;2023-06-14T10:21:12;15;13;
64138;PMS5003;50435;43.700;-79.318;2023-06-14T10:23:43;13;12;
64138;PMS5003;50435;43.700;-79.318;2023-06-14T10:26:17;15;13;
64138;PMS5003;50435;43.700;-79.318;2023-06-14T10:28:55;15;15;
64138;PMS5003;50435;43.700;-79.318;2023-06-14T10:31:27;14;13;
64138;PMS5003;50435;43.700;-79.318;2023-06-14T10:34:07;13;13;
64138;PMS5003;50435;43.700;-79.318;2023-06-14T10:36:36;17;15;
64138;PMS5003;50435;43.700;-79.318;2023-06-14T10:39:06;14;12;
64138;PMS5003;50435;43.700;-79.318;2023-06-14T10:41:35;13;11;
64138;PMS5003;50435;43.700;-79.318;2023-06-14T10:45:09;13;12;
64138;PMS5003;50435;43.700;-79.318;2023-06-14T10:47:39;14;14;
64138;PMS5003;50435;43.700;-79.318;2023-06-14T10:50:08;13;12;
64138;PMS5003;50435;43.700;-79.318;2023-06-14T10:52:38;13;11;
64138;PMS5003;50435;43.700;-79.318;2023-06-14T10:55:08;13;13;
64138;PMS5003;50435;43.700;-79.318;2023-06-14T10:57:37;16;13;
64138;PMS5003;50435;43.700;-79.318;2023-06-14T11:00:06;12;12;
64138;PMS5003;50435;43.700;-79.318;2023-06-14T11:02:44;15;11;
64138;PMS5003;50435;43.700;-79.318;2023-06-14T11:05:20;19;15;
64138;PMS5003;50435;43.700;-79.318;2023-06-14T11:07:55;10;10;
64138;PMS5003;50435;43.700;-79.318;2023-06-14T11:10:36;15;13;
64138;PMS5003;50435;43.700;-79.318;2023-06-14T11:13:04;17;14;
64138;PMS5003;50435;43.700;-79.318;2023-06-14T11:15:33;14;13;
64138;PMS5003;50435;43.700;-79.318;2023-06-14T11:18:01;17;13;
64138;PMS5003;50435;43.700;-79.318;2023-06-14T11:20:30;15;13;
64138;PMS5003;50435;43.700;-79.318;2023-06-14T11:22:59;11;10;
64138;PMS5003;50435;43.700;-79.318;2023-06-14T11:25:27;17;14;
64138;PMS5003;50435;43.700;-79.318;2023-06-14T11:27:54;14;13;
64138;PMS5003;50435;43.700;-79.318;2023-06-14T11:30:22;12;11;
64138;PMS5003;50435;43.700;-79.318;2023-06-14T11:32:50;13;11;
64138;PMS5003;50435;43.700;-79.318;2023-06-14T11:35:23;14;14;
64138;PMS5003;50435;43.700;-79.318;2023-06-14T11:37:52;11;11;
64138;PMS5003;50435;43.700;-79.318;2023-06-14T11:40:22;11;11;
64138;PMS5003;50435;43.700;-79.318;2023-06-14T11:42:57;15;12;
64138;PMS5003;50435;43.700;-79.318;2023-06-14T11:45:25;15;13;
64138;PMS5003;50435;43.700;-79.318;2023-06-14T11:47:54;13;13;
64138;PMS5003;50435;43.700;-79.318;2023-06-14T11:50:23;12;10;
64138;PMS5003;50435;43.700;-79.318;2023-06-14T11:52:52;12;10;
64138;PMS5003;50435;43.700;-79.318;2023-06-14T11:55:20;9;9;
64138;PMS5003;50435;43.700;-79.318;2023-06-14T11:57:48;11;11;
64138;PMS5003;50435;43.700;-79.318;2023-06-14T12:00:15;12;10;
64138;PMS5003;50435;43.700;-79.318;2023-06-14T12:02:52;13;11;
64138;PMS5003;50435;43.700;-79.318;2023-06-14T12:05:20;11;9;
64138;PMS5003;50435;43.700;-79.318;2023-06-14T12:07:48;12;11;
64138;PMS5003;50435;43.700;-79.318;2023-06-14T12:10:16;15;12;
64138;PMS5003;50435;43.700;-79.318;2023-06-14T12:12:43;13;10;
64138;PMS5003;50435;43.700;-79.318;2023-06-14T12:15:11;10;9;
64138;PMS5003;50435;43.700;-79.318;2023-06-14T12:17:39;12;9;
64138;PMS5003;50435;43.700;-79.318;2023-06-14T12:20:09;11;10;
64138;PMS5003;50435;43.700;-79.318;2023-06-14T12:22:38;15;13;
64138;PMS5003;50435;43.700;-79.318;2023-06-14T12:25:06;11;10;
64138;PMS5003;50435;43.700;-79.318;2023-06-14T12:27:34;13;12;
64138;PMS5003;50435;43.700;-79.318;2023-06-14T12:30:02;11;11;
64138;PMS5003;50435;43.700;-79.318;2023-06-14T12:32:31;12;9;
64138;PMS5003;50435;43.700;-79.318;2023-06-14T12:34:59;15;12;
64138;PMS5003;50435;43.700;-79.318;2023-06-14T12:37:27;12;9;
64138;PMS5003;50435;43.700;-79.318;2023-06-14T12:39:54;13;11;
64138;PMS5003;50435;43.700;-79.318;2023-06-14T12:42:22;10;10;
64138;PMS5003;50435;43.700;-79.318;2023-06-14T12:44:49;14;14;
64138;PMS5003;50435;43.700;-79.318;2023-06-14T12:47:17;13;9;
64138;PMS5003;50435;43.700;-79.318;2023-06-14T12:49:45;14;12;
64138;PMS5003;50435;43.700;-79.318;2023-06-14T12:52:12;16;14;
64138;PMS5003;50435;43.700;-79.318;2023-06-14T12:54:40;15;14;
64138;PMS5003;50435;43.700;-79.318;2023-06-14T12:57:08;12;11;
64138;PMS5003;50435;43.700;-79.318;2023-06-14T12:59:35;16;14;
64138;PMS5003;50435;43.700;-79.318;2023-06-14T13:02:12;12;11;
64138;PMS5003;50435;43.700;-79.318;2023-06-14T13:04:40;12;12;
64138;PMS5003;50435;43.700;-79.318;2023-06-14T13:07:08;16;15;
64138;PMS5003;50435;43.700;-79.318;2023-06-14T13:09:35;15;12;
64138;PMS5003;50435;43.700;-79.318;2023-06-14T13:12:02;12;11;
64138;PMS5003;50435;43.700;-79.318;2023-06-14T13:14:30;11;10;
64138;PMS5003;50435;43.700;-79.318;2023-06-14T13:16:58;10;10;
64138;PMS5003;50435;43.700;-79.318;2023-06-14T13:19:25;14;14;
64138;PMS5003;50435;43.700;-79.318;2023-06-14T13:21:52;12;12;
64138;PMS5003;50435;43.700;-79.318;2023-06-14T13:24:19;11;10;
64138;PMS5003;50435;43.700;-79.318;2023-06-14T13:26:47;10;10;
64138;PMS5003;50435;43.700;-79.318;2023-06-14T13:29:14;13;13;
64138;PMS5003;50435;43.700;-79.318;2023-06-14T13:31:42;10;10;
64138;PMS5003;50435;43.700;-79.318;2023-06-14T13:34:09;14;11;
64138;PMS5003;50435;43.700;-79.318;2023-06-14T13:36:37;11;9;
64138;PMS5003;50435;43.700;-79.318;2023-06-14T13:39:04;12;12;
64138;PMS5003;50435;43.700;-79.318;2023-06-14T13:41:32;15;12;
64138;PMS5003;50435;43.700;-79.318;2023-06-14T13:43:59;14;10;
64138;PMS5003;50435;43.700;-79.318;2023-06-14T13:46:27;10;10;
64138;PMS5003;50435;43.700;-79.318;2023-06-14T13:48:55;10;9;
64138;PMS5003;50435;43.700;-79.318;2023-06-14T13:51:23;9;8;
64138;PMS5003;50435;43.700;-79.318;2023-06-14T13:53:51;10;8;
64138;PMS5003;50435;43.700;-79.318;2023-06-14T13:56:19;13;10;
64138;PMS5003;50435;43.700;-79.318;2023-06-14T13:58:46;9;9;
64138;PMS5003;50435;43.700;-79.318;2023-06-14T14:01:14;15;12;
64138;PMS5003;50435;43.700;-79.318;2023-06-14T14:03:41;12;12;
64138;PMS5003;50435;43.700;-79.318;2023-06-14T14:06:09;9;9;
64138;PMS5003;50435;43.700;-79.318;2023-06-14T14:08:36;9;9;
64138;PMS5003;50435;43.700;-79.318;2023-06-14T14:11:04;10;9;
64138;PMS5003;50435;43.700;-79.318;2023-06-14T14:13:32;12;12;
64138;PMS5003;50435;43.700;-79.318;2023-06-14T14:15:59;6;6;
64138;PMS5003;50435;43.700;-79.318;2023-06-14T14:18:27;10;8;
64138;PMS5003;50435;43.700;-79.318;2023-06-14T14:20:54;9;8;
64138;PMS5003;50435;43.700;-79.318;2023-06-14T14:23:22;8;8;
64138;PMS5003;50435;43.700;-79.318;2023-06-14T14:25:50;6;6;
64138;PMS5003;50435;43.700;-79.318;2023-06-14T14:28:17;9;8;
64138;PMS5003;50435;43.700;-79.318;2023-06-14T14:30:45;7;7;
64138;PMS5003;50435;43.700;-79.318;2023-06-14T14:33:13;6;6;
64138;PMS5003;50435;43.700;-79.318;2023-06-14T14:35:40;8;8;
64138;PMS5003;50435;43.700;-79.318;2023-06-14T14:38:08;8;8;
64138;PMS5003;50435;43.700;-79.318;2023-06-14T14:40:36;8;8;
64138;PMS5003;50435;43.700;-79.318;2023-06-14T14:43:03;8;7;
64138;PMS5003;50435;43.700;-79.318;2023-06-14T14:45:31;12;9;
64138;PMS5003;50435;43.700;-79.318;2023-06-14T14:48:00;12;12;
64138;PMS5003;50435;43.700;-79.318;2023-06-14T14:50:27;8;8;
64138;PMS5003;50435;43.700;-79.318;2023-06-14T14:52:55;8;7;
64138;PMS5003;50435;43.700;-79.318;2023-06-14T14:55:23;8;8;
64138;PMS5003;50435;43.700;-79.318;2023-06-14T14:57:50;8;8;
64138;PMS5003;50435;43.700;-79.318;2023-06-14T15:00:18;12;9;
64138;PMS5003;50435;43.700;-79.318;2023-06-14T15:02:46;8;8;
64138;PMS5003;50435;43.700;-79.318;2023-06-14T15:05:14;7;7;
64138;PMS5003;50435;43.700;-79.318;2023-06-14T15:07:41;8;8;
64138;PMS5003;50435;43.700;-79.318;2023-06-14T15:10:09;10;8;
64138;PMS5003;50435;43.700;-79.318;2023-06-14T15:12:37;10;8;
64138;PMS5003;50435;43.700;-79.318;2023-06-14T15:15:05;9;8;
64138;PMS5003;50435;43.700;-79.318;2023-06-14T15:17:33;10;10;
64138;PMS5003;50435;43.700;-79.318;2023-06-14T15:20:01;10;10;
64138;PMS5003;50435;43.700;-79.318;2023-06-14T15:22:28;7;7;
64138;PMS5003;50435;43.700;-79.318;2023-06-14T15:24:56;10;8;
64138;PMS5003;50435;43.700;-79.318;2023-06-14T15:27:24;9;8;
64138;PMS5003;50435;43.700;-79.318;2023-06-14T15:29:51;12;11;
64138;PMS5003;50435;43.700;-79.318;2023-06-14T15:32:18;12;10;
64138;PMS5003;50435;43.700;-79.318;2023-06-14T15:34:46;10;10;
64138;PMS5003;50435;43.700;-79.318;2023-06-14T15:37:14;9;8;
64138;PMS5003;50435;43.700;-79.318;2023-06-14T15:39:42;12;10;
64138;PMS5003;50435;43.700;-79.318;2023-06-14T15:42:09;11;10;
64138;PMS5003;50435;43.700;-79.318;2023-06-14T15:44:37;10;10;
64138;PMS5003;50435;43.700;-79.318;2023-06-14T15:47:04;11;11;
64138;PMS5003;50435;43.700;-79.318;2023-06-14T15:49:32;13;11;
64138;PMS5003;50435;43.700;-79.318;2023-06-14T15:51:59;9;9;
64138;PMS5003;50435;43.700;-79.318;2023-06-14T15:54:27;12;9;
64138;PMS5003;50435;43.700;-79.318;2023-06-14T15:56:55;13;12;
64138;PMS5003;50435;43.700;-79.318;2023-06-14T15:59:23;10;10;
64138;PMS5003;50435;43.700;-79.318;2023-06-14T16:01:50;11;11;
64138;PMS5003;50435;43.700;-79.318;2023-06-14T16:04:18;9;9;